createdAt,value
2023-02-24T00:02:05.861Z,8.44
2023-02-24T00:07:05.498Z,8.71
2023-02-24T00:12:12.988Z,8.55
2023-02-24T00:17:17.998Z,8.82
2023-02-24T00:22:47.531Z,8.37
2023-02-24T00:27:53.264Z,8.56
2023-02-24T00:32:52.894Z,8.45
2023-02-24T00:37:51.535Z,8.24
2023-02-24T00:42:59.472Z,8.26
2023-02-24T00:48:04.752Z,8.36
2023-02-24T00:53:13.078Z,8.32
2023-02-24T00:58:11.437Z,8.55
2023-02-24T01:03:12.240Z,8.30
2023-02-24T01:08:16.487Z,7.91
2023-02-24T01:13:13.895Z,8.13
2023-02-24T01:18:17.177Z,8.22
2023-02-24T01:23:15.885Z,8.42
2023-02-24T01:28:18.404Z,7.84
2023-02-24T01:33:16.886Z,7.98
2023-02-24T01:38:30.867Z,8.32
2023-02-24T01:43:31.291Z,8.05
2023-02-24T01:48:30.441Z,7.80
2023-02-24T01:53:29.509Z,8.00
2023-02-24T01:58:32.865Z,7.77
2023-02-24T02:03:31.559Z,8.02
2023-02-24T02:08:30.383Z,7.69
2023-02-24T02:13:35.950Z,7.61
2023-02-24T02:19:00.831Z,7.57
2023-02-24T02:24:20.189Z,7.60
2023-02-24T02:29:27.246Z,7.55
2023-02-24T02:34:37.165Z,7.37
2023-02-24T02:39:34.332Z,7.34
2023-02-24T02:44:36.445Z,7.70
2023-02-24T02:49:41.242Z,7.75
2023-02-24T02:54:54.386Z,7.50
2023-02-24T03:00:00.336Z,7.48
2023-02-24T03:05:12.335Z,7.72
2023-02-24T03:10:18.442Z,7.24
2023-02-24T03:15:17.619Z,7.45
2023-02-24T03:20:29.954Z,7.48
2023-02-24T03:25:31.978Z,7.52
2023-02-24T03:30:50.397Z,7.53
2023-02-24T03:35:53.107Z,7.51
2023-02-24T03:40:53.549Z,7.45
2023-02-24T03:46:01.437Z,7.59
2023-02-24T03:51:04.369Z,7.65
2023-02-24T03:56:15.995Z,7.82
2023-02-24T04:01:36.519Z,7.77
2023-02-24T04:06:41.256Z,7.78
2023-02-24T04:11:46.161Z,7.89
2023-02-24T04:16:58.336Z,7.65
2023-02-24T04:22:07.318Z,7.79
2023-02-24T04:27:10.762Z,7.85
2023-02-24T04:32:15.268Z,7.71
2023-02-24T04:37:17.644Z,7.59
2023-02-24T04:42:20.098Z,7.48
2023-02-24T04:47:19.838Z,7.24
2023-02-24T04:52:26.647Z,7.14
2023-02-24T04:57:26.378Z,7.45
2023-02-24T05:02:24.302Z,7.45
2023-02-24T05:07:22.674Z,8.05
2023-02-24T05:12:21.790Z,7.84
2023-02-24T05:17:22.217Z,7.58
2023-02-24T05:22:23.393Z,7.70
2023-02-24T05:27:22.802Z,7.37
2023-02-24T05:32:25.617Z,7.83
2023-02-24T05:37:24.212Z,8.12
2023-02-24T05:42:24.383Z,8.20
2023-02-24T05:47:25.361Z,8.56
2023-02-24T05:52:25.481Z,8.82
2023-02-24T05:57:36.668Z,8.83
2023-02-24T06:03:01.920Z,8.76
2023-02-24T06:08:13.332Z,8.69
2023-02-24T06:13:10.863Z,8.34
2023-02-24T06:18:11.747Z,8.53
2023-02-24T06:23:09.568Z,8.61
2023-02-24T06:28:10.052Z,8.84
2023-02-24T06:33:09.445Z,8.92
2023-02-24T06:38:08.339Z,8.86
2023-02-24T06:43:06.731Z,8.79
2023-02-24T06:48:09.246Z,8.83
2023-02-24T06:53:17.346Z,9.02
2023-02-24T06:58:19.119Z,9.08
2023-02-24T07:03:17.894Z,8.98
2023-02-24T07:08:18.855Z,9.14
2023-02-24T07:13:17.816Z,9.08
2023-02-24T07:18:17.200Z,8.99
2023-02-24T07:23:18.022Z,9.02
2023-02-24T07:28:19.588Z,9.31
2023-02-24T07:33:19.439Z,9.37
2023-02-24T07:38:23.145Z,9.48
2023-02-24T07:43:33.274Z,9.36
2023-02-24T07:48:31.582Z,9.08
2023-02-24T07:53:31.316Z,9.83
2023-02-24T07:58:34.410Z,9.72
2023-02-24T08:03:37.202Z,10.04
2023-02-24T08:08:57.041Z,10.06
2023-02-24T08:13:58.821Z,10.12
2023-02-24T08:18:58.041Z,10.30
2023-02-24T08:23:56.376Z,10.48
2023-02-24T08:28:58.932Z,10.59
2023-02-24T08:33:56.490Z,10.71
2023-02-24T08:39:02.064Z,10.62
2023-02-24T08:44:03.061Z,10.53
2023-02-24T08:49:02.112Z,10.58
2023-02-24T08:54:12.392Z,10.61
2023-02-24T08:59:34.119Z,10.55
2023-02-24T09:04:35.932Z,10.47
2023-02-24T09:09:44.224Z,10.27
2023-02-24T09:14:43.203Z,10.16
2023-02-24T09:20:01.954Z,10.38
2023-02-24T09:25:27.041Z,10.23
2023-02-24T09:30:39.880Z,10.40
2023-02-24T09:36:21.064Z,10.01
2023-02-24T09:42:00.168Z,9.67
2023-02-24T09:47:44.067Z,9.68
2023-02-24T09:52:57.567Z,9.48
2023-02-24T09:58:23.595Z,9.46
2023-02-24T10:03:43.873Z,9.44
2023-02-24T10:08:43.625Z,9.66
2023-02-24T10:14:05.645Z,9.79
2023-02-24T10:19:21.079Z,9.77
2023-02-24T10:24:23.094Z,9.55
2023-02-24T10:29:26.207Z,9.59
2023-02-24T10:34:35.834Z,9.64
2023-02-24T10:39:35.552Z,9.55
2023-02-24T10:44:39.184Z,9.66
2023-02-24T10:49:45.031Z,9.60
2023-02-24T10:55:06.351Z,9.76
2023-02-24T11:00:20.078Z,9.99
2023-02-24T11:05:48.853Z,9.93
2023-02-24T11:10:59.403Z,10.29
2023-02-24T11:16:16.306Z,10.35
2023-02-24T11:21:28.370Z,10.28
2023-02-24T11:26:28.903Z,10.38
2023-02-24T11:31:42.831Z,10.60
2023-02-24T11:37:03.312Z,11.01
2023-02-24T11:42:02.076Z,11.08
2023-02-24T11:47:00.994Z,11.27
2023-02-24T11:51:59.617Z,11.27
2023-02-24T11:57:00.522Z,11.33
2023-02-24T12:02:11.081Z,11.42
2023-02-24T12:07:11.537Z,11.59
2023-02-24T12:12:15.121Z,11.65
2023-02-24T12:17:18.294Z,11.16
2023-02-24T12:22:16.739Z,11.36
2023-02-24T12:27:14.827Z,11.46
2023-02-24T12:32:21.754Z,11.71
2023-02-24T12:37:28.517Z,11.94
2023-02-24T12:42:30.751Z,11.99
2023-02-24T12:47:37.991Z,12.09
2023-02-24T12:52:40.238Z,11.74
2023-02-24T12:57:57.570Z,11.60
2023-02-24T13:03:14.738Z,11.56
2023-02-24T13:08:22.175Z,11.88
2023-02-24T13:13:23.590Z,12.24
2023-02-24T13:18:27.811Z,12.38
2023-02-24T13:23:27.971Z,12.22
2023-02-24T13:28:28.832Z,12.74
2023-02-24T13:33:34.912Z,12.83
2023-02-24T13:38:34.408Z,13.09
2023-02-24T13:43:35.233Z,13.06
2023-02-24T13:48:54.331Z,13.06
2023-02-24T13:53:59.576Z,13.35
2023-02-24T13:59:06.917Z,13.17
2023-02-24T14:04:14.899Z,13.48
2023-02-24T14:09:13.201Z,13.35
2023-02-24T14:14:18.311Z,13.22
2023-02-24T14:19:18.684Z,13.39
2023-02-24T14:24:19.440Z,13.30
2023-02-24T14:29:21.383Z,13.18
2023-02-24T14:34:20.703Z,13.34
2023-02-24T14:39:22.144Z,13.08
2023-02-24T14:44:25.035Z,13.52
2023-02-24T14:49:25.346Z,13.69
2023-02-24T14:54:34.646Z,13.60
2023-02-24T14:59:34.089Z,13.71
2023-02-24T15:04:37.006Z,13.27
2023-02-24T15:09:36.520Z,12.91
2023-02-24T15:14:35.440Z,12.75
2023-02-24T15:19:44.217Z,12.49
2023-02-24T15:24:42.997Z,12.23
2023-02-24T15:29:41.647Z,11.97
2023-02-24T15:34:43.045Z,11.83
2023-02-24T15:39:42.807Z,11.82
2023-02-24T15:44:41.250Z,11.69
2023-02-24T15:49:43.882Z,11.57
2023-02-24T15:54:48.718Z,11.49
2023-02-24T15:59:50.368Z,11.57
2023-02-24T16:04:52.059Z,11.40
2023-02-24T16:09:51.315Z,11.24
2023-02-24T16:15:06.466Z,11.09
2023-02-24T16:20:11.562Z,11.09
2023-02-24T16:25:19.930Z,11.26
2023-02-24T16:36:02.229Z,11.13
2023-02-24T16:41:02.780Z,11.11
2023-02-24T16:46:14.445Z,10.79
2023-02-24T16:57:01.764Z,10.53
2023-02-24T17:02:11.237Z,10.48
2023-02-24T17:07:28.270Z,10.18
2023-02-24T17:12:33.571Z,10.25
2023-02-24T17:23:32.505Z,9.72
2023-02-24T17:28:41.056Z,9.85
2023-02-24T17:39:53.156Z,10.00
2023-02-24T17:44:57.714Z,9.85
2023-02-24T17:49:56.481Z,9.75
2023-02-24T17:54:54.200Z,9.66
2023-02-24T18:05:16.764Z,9.49
2023-02-24T18:10:18.005Z,9.54
2023-02-24T18:15:16.376Z,9.57
2023-02-24T18:20:18.978Z,9.46
2023-02-24T18:25:17.593Z,9.35
2023-02-24T18:35:38.808Z,8.70
2023-02-24T18:40:39.381Z,9.03
2023-02-24T18:45:40.182Z,9.06
2023-02-24T18:50:37.562Z,9.05
2023-02-24T18:55:35.895Z,9.01
2023-02-24T19:00:37.403Z,8.96
2023-02-24T19:05:38.801Z,8.93
2023-02-24T19:10:46.642Z,8.80
2023-02-24T19:15:48.996Z,8.65
2023-02-24T19:20:48.495Z,8.61
2023-02-24T19:25:50.460Z,8.56
2023-02-24T19:30:51.009Z,8.09
2023-02-24T19:35:53.516Z,8.26
2023-02-24T19:40:57.877Z,8.49
2023-02-24T19:46:12.736Z,8.44
2023-02-24T19:51:15.671Z,8.38
2023-02-24T19:56:17.576Z,8.34
2023-02-24T20:01:20.233Z,8.19
2023-02-24T20:06:38.037Z,8.22
2023-02-24T20:11:39.591Z,8.22
2023-02-24T20:16:45.684Z,8.09
2023-02-24T20:21:46.674Z,8.04
2023-02-24T20:26:47.419Z,8.14
2023-02-24T20:31:49.182Z,7.98
2023-02-24T20:36:51.284Z,7.84
2023-02-24T20:41:55.330Z,8.26
2023-02-24T20:46:54.643Z,7.68
2023-02-24T20:51:52.469Z,7.44
2023-02-24T20:56:52.710Z,7.59
2023-02-24T21:01:53.732Z,7.49
2023-02-24T21:06:56.915Z,7.72
2023-02-24T21:11:55.568Z,7.48
2023-02-24T21:16:56.833Z,7.61
2023-02-24T21:21:54.387Z,7.56
2023-02-24T21:26:53.083Z,7.63
2023-02-24T21:31:53.149Z,7.48
2023-02-24T21:36:52.040Z,7.48
2023-02-24T21:41:53.481Z,7.67
2023-02-24T21:46:55.737Z,7.26
2023-02-24T21:51:57.021Z,7.40
2023-02-24T21:56:58.882Z,7.22
2023-02-24T22:01:56.145Z,6.99
2023-02-24T22:07:11.730Z,6.87
2023-02-24T22:12:14.880Z,6.74
2023-02-24T22:17:13.967Z,6.68
2023-02-24T22:22:12.810Z,6.63
2023-02-24T22:27:14.263Z,6.58
2023-02-24T22:32:17.128Z,6.47
2023-02-24T22:37:31.841Z,6.50
2023-02-24T22:42:29.919Z,6.65
2023-02-24T22:47:30.402Z,6.53
2023-02-24T22:52:31.278Z,6.48
2023-02-24T22:57:34.151Z,6.45
2023-02-24T23:02:34.890Z,6.47
2023-02-24T23:07:37.612Z,6.43
2023-02-24T23:12:38.456Z,6.46
2023-02-24T23:17:37.615Z,6.39
2023-02-24T23:22:36.325Z,6.55
2023-02-24T23:27:40.774Z,6.33
2023-02-24T23:32:58.152Z,5.72
2023-02-24T23:37:59.273Z,5.76
2023-02-24T23:42:58.806Z,5.45
2023-02-24T23:48:00.722Z,5.54
2023-02-24T23:53:04.107Z,5.78
2023-02-24T23:58:05.831Z,5.60
